createdAt,value
2018-12-17T00:00:05.367Z,101346.73
2018-12-17T00:02:48.812Z,101342.80
2018-12-17T00:05:25.830Z,101335.72
2018-12-17T00:08:20.497Z,101341.92
2018-12-17T00:11:03.932Z,101344.94
2018-12-17T00:16:39.688Z,101339.97
2018-12-17T00:19:14.569Z,101342.19
2018-12-17T00:21:54.045Z,101341.73
2018-12-17T00:24:31.830Z,101355.78
2018-12-17T00:27:15.444Z,101349.63
2018-12-17T00:30:12.931Z,101349.63
2018-12-17T00:32:52.511Z,101357.09
2018-12-17T00:35:30.379Z,101353.98
2018-12-17T00:38:19.878Z,101357.16
2018-12-17T00:41:01.031Z,101357.59
2018-12-17T00:43:45.360Z,101363.31
2018-12-17T00:46:21.079Z,101359.44
2018-12-17T00:52:05.851Z,101376.12
2018-12-17T00:54:40.163Z,101376.53
2018-12-17T00:57:21.011Z,101372.18
2018-12-17T01:00:15.536Z,101372.67
2018-12-17T01:02:53.378Z,101387.64
2018-12-17T01:05:29.483Z,101384.52
2018-12-17T01:08:10.267Z,101385.75
2018-12-17T01:10:49.390Z,101388.02
2018-12-17T01:13:32.796Z,101394.64
2018-12-17T01:16:10.928Z,101391.50
2018-12-17T01:18:46.243Z,101395.94
2018-12-17T01:21:26.130Z,101395.46
2018-12-17T01:23:57.235Z,101395.41
2018-12-17T01:26:32.375Z,101393.63
2018-12-17T01:29:13.356Z,101401.11
2018-12-17T01:31:57.027Z,101403.80
2018-12-17T01:34:31.378Z,101400.33
2018-12-17T01:37:12.362Z,101399.08
2018-12-17T01:40:01.930Z,101401.31
2018-12-17T01:42:37.787Z,101407.86
2018-12-17T01:45:21.712Z,101410.48
2018-12-17T01:48:18.978Z,101408.27
2018-12-17T01:54:10.084Z,101415.29
2018-12-17T01:56:46.214Z,101416.52
2018-12-17T02:18:30.946Z,101409.63
2018-12-17T02:21:11.528Z,101410.50
2018-12-17T02:23:55.658Z,101409.18
2018-12-17T02:26:40.445Z,101407.43
2018-12-17T02:29:35.740Z,101413.16
2018-12-17T02:32:06.565Z,101415.72
2018-12-17T02:34:41.710Z,101417.06
2018-12-17T02:37:17.873Z,101415.76
2018-12-17T02:39:52.694Z,101411.32
2018-12-17T02:42:39.957Z,101414.40
2018-12-17T02:45:16.899Z,101407.73
2018-12-17T02:47:53.155Z,101413.02
2018-12-17T02:50:29.727Z,101420.15
2018-12-17T02:53:24.389Z,101417.13
2018-12-17T02:55:59.251Z,101422.86
2018-12-17T02:58:54.669Z,101429.00
2018-12-17T03:01:31.396Z,101425.05
2018-12-17T03:04:04.736Z,101432.52
2018-12-17T03:06:40.382Z,101429.00
2018-12-17T03:09:30.097Z,101436.05
2018-12-17T03:12:10.701Z,101445.69
2018-12-17T03:14:52.190Z,101454.98
2018-12-17T03:17:28.291Z,101451.91
2018-12-17T03:20:05.406Z,101450.13
2018-12-17T03:22:46.732Z,101444.78
2018-12-17T03:25:28.255Z,101441.23
2018-12-17T03:28:03.070Z,101449.15
2018-12-17T03:30:44.569Z,101446.48
2018-12-17T03:33:33.825Z,101436.86
2018-12-17T03:36:17.136Z,101450.95
2018-12-17T03:39:06.018Z,101453.56
2018-12-17T03:41:49.365Z,101454.42
2018-12-17T03:44:38.462Z,101449.20
2018-12-17T03:47:12.113Z,101450.50
2018-12-17T03:49:46.535Z,101465.02
2018-12-17T03:52:25.329Z,101466.75
2018-12-17T03:55:01.226Z,101469.42
2018-12-17T03:57:38.383Z,101471.20
2018-12-17T04:03:16.797Z,101477.78
2018-12-17T04:06:01.666Z,101477.27
2018-12-17T04:09:00.695Z,101476.47
2018-12-17T04:11:37.614Z,101475.12
2018-12-17T04:14:36.388Z,101476.44
2018-12-17T04:17:19.839Z,101481.22
2018-12-17T04:20:02.915Z,101479.03
2018-12-17T04:22:41.289Z,101479.09
2018-12-17T04:25:18.539Z,101484.30
2018-12-17T04:27:54.683Z,101492.72
2018-12-17T04:30:25.640Z,101491.00
2018-12-17T04:33:02.846Z,101495.92
2018-12-17T04:35:38.228Z,101501.17
2018-12-17T04:38:08.911Z,101497.61
2018-12-17T04:43:52.332Z,101505.94
2018-12-17T04:46:25.009Z,101512.11
2018-12-17T04:49:06.401Z,101513.86
2018-12-17T04:51:53.568Z,101512.13
2018-12-17T04:54:29.657Z,101513.50
2018-12-17T04:57:04.947Z,101519.25
2018-12-17T04:59:47.394Z,101517.95
2018-12-17T05:02:30.519Z,101516.16
2018-12-17T05:05:13.939Z,101512.18
2018-12-17T05:13:05.314Z,101530.27
2018-12-17T05:15:39.417Z,101538.20
2018-12-17T05:34:24.050Z,101542.91
2018-12-17T05:37:12.957Z,101541.70
2018-12-17T05:39:44.510Z,101552.28
2018-12-17T05:42:28.959Z,101561.09
2018-12-17T05:45:10.381Z,101558.44
2018-12-17T05:51:34.124Z,101574.73
2018-12-17T05:54:17.463Z,101567.62
2018-12-17T05:56:50.211Z,101578.63
2018-12-17T05:59:28.716Z,101571.16
2018-12-17T06:02:05.186Z,101579.10
2018-12-17T06:04:47.789Z,101583.53
2018-12-17T06:07:26.110Z,101583.52
2018-12-17T06:10:00.856Z,101579.13
2018-12-17T06:12:39.459Z,101584.45
2018-12-17T06:15:14.856Z,101594.55
2018-12-17T06:17:50.229Z,101587.95
2018-12-17T06:20:45.513Z,101592.82
2018-12-17T06:23:27.208Z,101601.64
2018-12-17T06:26:06.999Z,101596.78
2018-12-17T06:28:44.436Z,101605.58
2018-12-17T06:31:27.462Z,101602.50
2018-12-17T06:37:20.916Z,101611.76
2018-12-17T06:46:27.805Z,101628.45
2018-12-17T06:52:42.211Z,101635.98
2018-12-17T06:55:25.929Z,101633.34
2018-12-17T06:58:21.433Z,101642.13
2018-12-17T07:01:02.895Z,101644.36
2018-12-17T07:03:58.501Z,101647.89
2018-12-17T07:06:42.174Z,101653.59
2018-12-17T07:09:25.628Z,101662.38
2018-12-17T07:15:34.655Z,101661.08
2018-12-17T07:18:15.057Z,101669.46
2018-12-17T07:21:04.518Z,101670.33
2018-12-17T07:26:52.993Z,101671.67
2018-12-17T07:29:42.167Z,101674.30
2018-12-17T07:32:18.660Z,101682.26
2018-12-17T07:34:59.751Z,101680.48
2018-12-17T07:37:40.668Z,101683.12
2018-12-17T07:40:30.954Z,101685.71
2018-12-17T07:43:06.481Z,101685.69
2018-12-17T07:45:44.479Z,101696.70
2018-12-17T07:48:34.781Z,101698.94
2018-12-17T07:51:23.930Z,101702.50
2018-12-17T07:54:07.262Z,101695.48
2018-12-17T07:56:42.475Z,101703.39
2018-12-17T07:59:25.013Z,101704.27
2018-12-17T08:02:09.879Z,101702.96
2018-12-17T08:05:01.811Z,101710.47
2018-12-17T08:07:40.911Z,101708.23
2018-12-17T08:10:21.584Z,101702.94
2018-12-17T08:13:05.470Z,101712.61
2018-12-17T08:15:40.703Z,101708.66
2018-12-17T08:18:31.262Z,101706.03
2018-12-17T08:21:14.626Z,101715.30
2018-12-17T08:23:56.046Z,101721.02
2018-12-17T08:26:31.670Z,101720.98
2018-12-17T08:29:02.795Z,101728.91
2018-12-17T08:31:56.260Z,101735.55
2018-12-17T08:34:39.335Z,101728.06
2018-12-17T08:37:33.700Z,101740.86
2018-12-17T08:40:09.305Z,101737.34
2018-12-17T08:42:53.676Z,101742.61
2018-12-17T08:45:34.899Z,101738.23
2018-12-17T08:57:37.927Z,101741.77
2018-12-17T09:00:21.136Z,101744.83
2018-12-17T09:02:56.044Z,101747.03
2018-12-17T09:05:39.197Z,101743.95
2018-12-17T09:08:25.699Z,101751.02
2018-12-17T09:11:09.877Z,101752.31
2018-12-17T09:13:59.941Z,101757.17
2018-12-17T09:16:42.022Z,101762.02
2018-12-17T09:22:47.169Z,101766.89
2018-12-17T09:25:24.908Z,101763.34
2018-12-17T09:28:14.578Z,101762.01
2018-12-17T09:30:57.494Z,101766.88
2018-12-17T09:33:40.791Z,101762.03
2018-12-17T09:36:16.043Z,101763.33
2018-12-17T09:38:51.023Z,101763.75
2018-12-17T09:41:38.622Z,101765.52
2018-12-17T09:47:26.142Z,101769.50
2018-12-17T09:50:05.512Z,101772.58
2018-12-17T09:52:52.187Z,101771.25
2018-12-17T09:55:36.352Z,101781.41
2018-12-17T09:58:20.111Z,101780.97
2018-12-17T10:01:00.876Z,101775.27
2018-12-17T10:03:49.232Z,101775.27
2018-12-17T10:06:29.559Z,101775.70
2018-12-17T10:09:17.224Z,101775.70
2018-12-17T10:12:09.579Z,101778.72
2018-12-17T10:15:01.342Z,101774.30
2018-12-17T10:17:43.024Z,101769.52
2018-12-17T10:20:24.529Z,101761.59
2018-12-17T10:23:09.636Z,101758.05
2018-12-17T10:25:52.732Z,101748.36
2018-12-17T10:28:48.352Z,101747.49
2018-12-17T10:38:05.284Z,101750.55
2018-12-17T10:40:55.250Z,101755.43
2018-12-17T10:47:29.651Z,101751.02
2018-12-17T10:53:06.219Z,101758.92
2018-12-17T10:55:47.752Z,101760.67
2018-12-17T10:58:32.008Z,101766.44
2018-12-17T11:01:20.619Z,101749.67
2018-12-17T11:04:16.631Z,101755.42
2018-12-17T11:07:03.014Z,101753.22
2018-12-17T11:13:13.148Z,101761.13
2018-12-17T11:15:57.883Z,101759.39
2018-12-17T11:18:41.462Z,101772.17
2018-12-17T11:21:25.373Z,101765.53
2018-12-17T11:24:10.422Z,101766.39
2018-12-17T11:26:44.817Z,101761.96
2018-12-17T11:29:38.022Z,101769.06
2018-12-17T11:32:29.322Z,101759.80
2018-12-17T11:35:07.223Z,101764.64
2018-12-17T11:37:49.228Z,101758.89
2018-12-17T11:40:27.854Z,101759.77
2018-12-17T11:46:25.829Z,101757.99
2018-12-17T11:49:15.223Z,101760.21
2018-12-17T11:51:53.477Z,101770.36
2018-12-17T11:54:41.007Z,101771.23
2018-12-17T11:58:26.795Z,101773.45
2018-12-17T12:04:20.461Z,101765.94
2018-12-17T12:07:07.207Z,101773.45
2018-12-17T12:09:48.694Z,101774.36
2018-12-17T12:12:30.724Z,101773.45
2018-12-17T12:15:08.612Z,101769.48
2018-12-17T12:20:57.274Z,101772.16
2018-12-17T12:23:41.225Z,101776.55
2018-12-17T12:26:22.706Z,101769.07
2018-12-17T12:29:13.110Z,101768.20
2018-12-17T12:31:57.953Z,101773.02
2018-12-17T12:34:43.369Z,101783.99
2018-12-17T12:37:27.305Z,101783.11
2018-12-17T12:40:20.531Z,101787.07
2018-12-17T12:42:57.637Z,101783.56
2018-12-17T12:45:33.267Z,101786.66
2018-12-17T12:48:08.126Z,101783.56
2018-12-17T12:50:48.804Z,101784.01
2018-12-17T12:53:29.424Z,101793.28
2018-12-17T12:56:14.313Z,101804.34
2018-12-17T12:58:55.047Z,101793.28
2018-12-17T13:01:40.834Z,101798.13
2018-12-17T13:04:24.369Z,101792.86
2018-12-17T13:07:05.680Z,101797.70
2018-12-17T13:09:45.397Z,101813.17
2018-12-17T13:25:22.218Z,101823.31
2018-12-17T13:47:45.164Z,101818.92
2018-12-17T13:50:30.208Z,101819.80
2018-12-17T13:53:21.845Z,101816.71
2018-12-17T13:59:06.168Z,101822.02
2018-12-17T14:01:59.731Z,101827.73
2018-12-17T14:07:48.650Z,101828.62
2018-12-17T14:16:58.395Z,101825.98
2018-12-17T14:19:53.847Z,101832.59
2018-12-17T14:22:48.345Z,101828.62
2018-12-17T14:25:33.458Z,101839.20
2018-12-17T14:28:30.051Z,101833.46
2018-12-17T14:34:26.254Z,101836.12
2018-12-17T14:40:34.326Z,101841.43
2018-12-17T14:46:36.191Z,101846.29
2018-12-17T14:52:45.273Z,101866.11
2018-12-17T16:00:47.816Z,101890.38
2018-12-17T16:03:48.821Z,101887.75
2018-12-17T16:06:33.302Z,101881.99
2018-12-17T16:09:33.440Z,101885.08
2018-12-17T16:12:24.007Z,101890.36
2018-12-17T16:15:15.783Z,101889.05
2018-12-17T16:21:13.298Z,101894.77
2018-12-17T16:30:28.292Z,101901.41
2018-12-17T16:33:15.797Z,101904.50
2018-12-17T18:06:45.295Z,101976.04
2018-12-17T18:55:12.075Z,102002.52
